createdAt,value
2018-09-06T00:05:35.000Z,39.874
2018-09-06T00:15:35.000Z,40.087
2018-09-06T00:25:35.000Z,40.01
2018-09-06T00:35:35.000Z,40.107
2018-09-06T00:45:35.000Z,40.192
2018-09-06T00:55:35.000Z,40.278
2018-09-06T01:05:35.000Z,40.34
2018-09-06T01:15:35.000Z,40.392
2018-09-06T01:25:35.000Z,40.466
2018-09-06T01:35:35.000Z,40.421
2018-09-06T01:45:35.000Z,40.56
2018-09-06T01:55:35.000Z,40.647
2018-09-06T02:05:35.000Z,40.764
2018-09-06T02:15:35.000Z,40.805
2018-09-06T02:25:35.000Z,40.869
2018-09-06T02:35:35.000Z,40.954
2018-09-06T02:45:35.000Z,41.027
2018-09-06T02:55:35.000Z,41.124
2018-09-06T03:05:35.000Z,41.164
2018-09-06T03:15:35.000Z,41.195
2018-09-06T03:25:35.000Z,41.29
2018-09-06T03:35:35.000Z,41.299
2018-09-06T03:45:35.000Z,41.34
2018-09-06T03:55:35.000Z,41.393
2018-09-06T04:05:35.000Z,41.468
2018-09-06T04:15:35.000Z,41.52
2018-09-06T04:25:35.000Z,41.573
2018-09-06T04:35:35.000Z,41.625
2018-09-06T04:45:35.000Z,41.7
2018-09-06T04:55:35.000Z,41.718
2018-09-06T05:05:35.000Z,41.75
2018-09-06T05:15:36.000Z,41.771
2018-09-06T05:25:35.000Z,41.726
2018-09-06T05:35:35.000Z,41.759
2018-09-06T05:45:35.000Z,41.791
2018-09-06T05:55:35.000Z,41.842
2018-09-06T06:05:35.000Z,41.875
2018-09-06T06:15:35.000Z,41.908
2018-09-06T06:25:36.000Z,41.941
2018-09-06T06:35:36.000Z,41.875
2018-09-06T06:45:36.000Z,41.908
2018-09-06T06:55:36.000Z,41.91
2018-09-06T07:05:36.000Z,41.858
2018-09-06T07:15:36.000Z,41.828
2018-09-06T07:25:36.000Z,41.725
2018-09-06T07:35:36.000Z,41.708
2018-09-06T07:45:36.000Z,41.854
2018-09-06T07:55:36.000Z,42.085
2018-09-06T08:05:36.000Z,42
2018-09-06T08:15:36.000Z,42.068
2018-09-06T08:25:36.000Z,42.156
2018-09-06T08:35:36.000Z,42.257
2018-09-06T08:45:37.000Z,42.623
2018-09-06T08:55:36.000Z,42.669
2018-09-06T09:05:36.000Z,42.879
2018-09-06T09:15:36.000Z,43.078
2018-09-06T09:25:36.000Z,43.277
2018-09-06T09:35:36.000Z,43.29
2018-09-06T09:45:36.000Z,43.366
2018-09-06T09:55:36.000Z,43.345
2018-09-06T10:05:36.000Z,43.421
2018-09-06T10:15:36.000Z,43.486
2018-09-06T10:25:36.000Z,43.421
2018-09-06T10:35:36.000Z,43.511
2018-09-06T10:45:36.000Z,43.629
2018-09-06T10:55:36.000Z,43.749
2018-09-06T11:05:36.000Z,43.813
2018-09-06T11:15:36.000Z,44.055
2018-09-06T11:25:36.000Z,44.153
2018-09-06T11:35:36.000Z,44.36
2018-09-06T11:45:36.000Z,44.401
2018-09-06T11:55:36.000Z,44.544
2018-09-06T12:05:36.000Z,44.751
2018-09-06T12:15:36.000Z,44.989
2018-09-06T12:25:36.000Z,45.303
2018-09-06T12:35:36.000Z,45.406
2018-09-06T12:45:36.000Z,45.691
2018-09-06T12:55:36.000Z,45.833
2018-09-06T13:05:36.000Z,45.597
2018-09-06T13:15:36.000Z,46.479
2018-09-06T13:25:36.000Z,46.48
2018-09-06T13:35:36.000Z,46.425
2018-09-06T13:45:36.000Z,46.875
2018-09-06T13:55:36.000Z,46.563
2018-09-06T14:05:36.000Z,46.226
2018-09-06T14:15:36.000Z,46.084
2018-09-06T14:25:36.000Z,46.177
2018-09-06T14:35:36.000Z,46.203
2018-09-06T14:45:37.000Z,46.529
2018-09-06T14:55:37.000Z,46.583
2018-09-06T15:05:37.000Z,46.462
2018-09-06T15:15:37.000Z,46.444
2018-09-06T15:25:37.000Z,46.783
2018-09-06T15:35:37.000Z,46.892
2018-09-06T15:45:37.000Z,47.425
2018-09-06T15:55:37.000Z,47.576
2018-09-06T16:05:37.000Z,47.732
2018-09-06T16:15:37.000Z,48.231
2018-09-06T16:25:37.000Z,48.061
2018-09-06T16:35:37.000Z,48.519
2018-09-06T16:45:37.000Z,48.541
2018-09-06T16:55:37.000Z,48.662
2018-09-06T17:05:37.000Z,48.956
2018-09-06T17:15:37.000Z,48.887
2018-09-06T17:25:37.000Z,48.929
2018-09-06T17:35:37.000Z,48.904
2018-09-06T17:45:37.000Z,49.021
2018-09-06T17:55:37.000Z,48.997
2018-09-06T18:05:37.000Z,48.895
2018-09-06T18:15:37.000Z,48.981
2018-09-06T18:25:37.000Z,49.022
2018-09-06T18:35:37.000Z,49.13
2018-09-06T18:45:37.000Z,49.118
2018-09-06T18:55:37.000Z,49.193
2018-09-06T19:05:37.000Z,49.31
2018-09-06T19:15:37.000Z,49.353
2018-09-06T19:25:37.000Z,49.396
2018-09-06T19:35:37.000Z,49.526
2018-09-06T19:45:37.000Z,49.611
2018-09-06T19:55:37.000Z,49.674
2018-09-06T20:05:37.000Z,49.783
2018-09-06T20:15:37.000Z,49.782
2018-09-06T20:25:37.000Z,49.954
2018-09-06T20:35:37.000Z,49.918
2018-09-06T20:45:37.000Z,50.004
2018-09-06T20:55:37.000Z,50.402
2018-09-06T21:05:37.000Z,50.864
2018-09-06T21:15:37.000Z,50.948
2018-09-06T21:25:37.000Z,50.946
2018-09-06T21:35:37.000Z,51.119
2018-09-06T21:45:37.000Z,51.048
2018-09-06T21:55:37.000Z,51.165
2018-09-06T22:05:37.000Z,51.087
2018-09-06T22:15:37.000Z,51.181
2018-09-06T22:25:37.000Z,51.089
2018-09-06T22:35:37.000Z,51.022
2018-09-06T22:45:37.000Z,51.064
2018-09-06T22:55:37.000Z,50.962
2018-09-06T23:05:38.000Z,51.089
2018-09-06T23:15:38.000Z,50.935
2018-09-06T23:25:38.000Z,50.986
2018-09-06T23:35:38.000Z,50.962
2018-09-06T23:45:38.000Z,50.993
2018-09-06T23:55:38.000Z,50.958
